sensor_id;sensor_type;location;lat;lon;timestamp;P1;durP1;ratioP1;P2;durP2;ratioP2
29500;SDS011;16450;50.288;10.966;2024-01-06T00:00:06;11.07;;;6.63;;
29500;SDS011;16450;50.288;10.966;2024-01-06T00:03:09;15.93;;;7.70;;
29500;SDS011;16450;50.288;10.966;2024-01-06T00:06:11;9.97;;;6.30;;
29500;SDS011;16450;50.288;10.966;2024-01-06T00:09:14;12.63;;;7.13;;
29500;SDS011;16450;50.288;10.966;2024-01-06T00:12:16;10.20;;;6.60;;
29500;SDS011;16450;50.288;10.966;2024-01-06T00:15:20;13.80;;;6.57;;
29500;SDS011;16450;50.288;10.966;2024-01-06T00:18:21;12.57;;;6.60;;
29500;SDS011;16450;50.288;10.966;2024-01-06T00:21:24;11.73;;;6.73;;
29500;SDS011;16450;50.288;10.966;2024-01-06T00:24:25;10.80;;;6.27;;
29500;SDS011;16450;50.288;10.966;2024-01-06T00:27:27;13.27;;;6.50;;
29500;SDS011;16450;50.288;10.966;2024-01-06T00:30:32;12.50;;;6.70;;
29500;SDS011;16450;50.288;10.966;2024-01-06T00:33:37;12.27;;;6.70;;
29500;SDS011;16450;50.288;10.966;2024-01-06T00:36:39;13.50;;;6.77;;
29500;SDS011;16450;50.288;10.966;2024-01-06T00:39:41;11.43;;;7.13;;
29500;SDS011;16450;50.288;10.966;2024-01-06T00:42:42;12.67;;;7.50;;
29500;SDS011;16450;50.288;10.966;2024-01-06T00:45:44;11.10;;;7.03;;
29500;SDS011;16450;50.288;10.966;2024-01-06T00:48:46;11.33;;;7.43;;
29500;SDS011;16450;50.288;10.966;2024-01-06T00:51:48;13.33;;;7.60;;
29500;SDS011;16450;50.288;10.966;2024-01-06T00:54:50;17.80;;;7.93;;
29500;SDS011;16450;50.288;10.966;2024-01-06T00:57:52;10.50;;;7.10;;
29500;SDS011;16450;50.288;10.966;2024-01-06T01:00:54;17.73;;;8.00;;
29500;SDS011;16450;50.288;10.966;2024-01-06T01:03:55;12.70;;;7.43;;
29500;SDS011;16450;50.288;10.966;2024-01-06T01:06:57;11.27;;;6.97;;
29500;SDS011;16450;50.288;10.966;2024-01-06T01:09:59;10.77;;;7.03;;
29500;SDS011;16450;50.288;10.966;2024-01-06T01:13:01;13.80;;;7.87;;
29500;SDS011;16450;50.288;10.966;2024-01-06T01:16:03;14.87;;;7.60;;
29500;SDS011;16450;50.288;10.966;2024-01-06T01:19:05;13.17;;;6.87;;
29500;SDS011;16450;50.288;10.966;2024-01-06T01:22:07;12.93;;;7.00;;
29500;SDS011;16450;50.288;10.966;2024-01-06T01:25:09;9.87;;;6.63;;
29500;SDS011;16450;50.288;10.966;2024-01-06T01:28:13;9.13;;;6.20;;
29500;SDS011;16450;50.288;10.966;2024-01-06T01:31:15;10.30;;;6.40;;
29500;SDS011;16450;50.288;10.966;2024-01-06T01:34:17;10.67;;;6.27;;
29500;SDS011;16450;50.288;10.966;2024-01-06T01:37:19;10.87;;;6.20;;
29500;SDS011;16450;50.288;10.966;2024-01-06T01:40:22;9.10;;;6.03;;
29500;SDS011;16450;50.288;10.966;2024-01-06T01:43:24;10.33;;;6.50;;
29500;SDS011;16450;50.288;10.966;2024-01-06T01:46:26;10.53;;;6.63;;
29500;SDS011;16450;50.288;10.966;2024-01-06T01:49:28;13.23;;;6.73;;
29500;SDS011;16450;50.288;10.966;2024-01-06T01:52:30;11.27;;;6.80;;
29500;SDS011;16450;50.288;10.966;2024-01-06T01:55:34;10.30;;;6.37;;
29500;SDS011;16450;50.288;10.966;2024-01-06T01:58:36;9.87;;;6.17;;
29500;SDS011;16450;50.288;10.966;2024-01-06T02:01:38;10.53;;;6.27;;
29500;SDS011;16450;50.288;10.966;2024-01-06T02:04:41;10.03;;;6.30;;
29500;SDS011;16450;50.288;10.966;2024-01-06T02:07:43;10.83;;;6.47;;
29500;SDS011;16450;50.288;10.966;2024-01-06T02:10:45;10.67;;;6.47;;
29500;SDS011;16450;50.288;10.966;2024-01-06T02:13:47;10.80;;;6.73;;
29500;SDS011;16450;50.288;10.966;2024-01-06T02:16:49;10.47;;;6.67;;
29500;SDS011;16450;50.288;10.966;2024-01-06T02:19:51;9.23;;;5.80;;
29500;SDS011;16450;50.288;10.966;2024-01-06T02:22:53;11.37;;;6.10;;
29500;SDS011;16450;50.288;10.966;2024-01-06T02:25:55;10.73;;;6.53;;
29500;SDS011;16450;50.288;10.966;2024-01-06T02:28:58;12.20;;;6.77;;
29500;SDS011;16450;50.288;10.966;2024-01-06T02:32:00;10.00;;;6.13;;
29500;SDS011;16450;50.288;10.966;2024-01-06T02:35:02;11.53;;;6.10;;
29500;SDS011;16450;50.288;10.966;2024-01-06T02:38:04;11.67;;;6.40;;
29500;SDS011;16450;50.288;10.966;2024-01-06T02:41:05;10.73;;;6.50;;
29500;SDS011;16450;50.288;10.966;2024-01-06T02:44:07;10.40;;;6.90;;
29500;SDS011;16450;50.288;10.966;2024-01-06T02:47:13;11.07;;;6.63;;
29500;SDS011;16450;50.288;10.966;2024-01-06T02:50:15;11.07;;;6.60;;
29500;SDS011;16450;50.288;10.966;2024-01-06T02:53:17;10.20;;;6.33;;
29500;SDS011;16450;50.288;10.966;2024-01-06T02:56:19;10.30;;;6.73;;
29500;SDS011;16450;50.288;10.966;2024-01-06T02:59:21;9.57;;;6.20;;
29500;SDS011;16450;50.288;10.966;2024-01-06T03:02:23;11.23;;;6.57;;
29500;SDS011;16450;50.288;10.966;2024-01-06T03:05:24;10.03;;;6.80;;
29500;SDS011;16450;50.288;10.966;2024-01-06T03:08:26;10.47;;;6.50;;
29500;SDS011;16450;50.288;10.966;2024-01-06T03:11:28;9.70;;;6.40;;
29500;SDS011;16450;50.288;10.966;2024-01-06T03:14:30;11.40;;;6.97;;
29500;SDS011;16450;50.288;10.966;2024-01-06T03:17:32;11.97;;;6.70;;
29500;SDS011;16450;50.288;10.966;2024-01-06T03:20:34;10.23;;;6.87;;
29500;SDS011;16450;50.288;10.966;2024-01-06T03:23:36;12.57;;;6.87;;
29500;SDS011;16450;50.288;10.966;2024-01-06T03:26:38;9.93;;;6.47;;
29500;SDS011;16450;50.288;10.966;2024-01-06T03:29:40;11.13;;;6.67;;
29500;SDS011;16450;50.288;10.966;2024-01-06T03:32:42;11.07;;;7.17;;
29500;SDS011;16450;50.288;10.966;2024-01-06T03:35:44;11.97;;;7.33;;
29500;SDS011;16450;50.288;10.966;2024-01-06T03:38:46;10.73;;;7.17;;
29500;SDS011;16450;50.288;10.966;2024-01-06T03:41:48;13.07;;;6.57;;
29500;SDS011;16450;50.288;10.966;2024-01-06T03:44:50;11.47;;;6.60;;
29500;SDS011;16450;50.288;10.966;2024-01-06T03:47:52;10.47;;;6.37;;
29500;SDS011;16450;50.288;10.966;2024-01-06T03:50:53;10.30;;;6.40;;
29500;SDS011;16450;50.288;10.966;2024-01-06T03:53:55;11.20;;;6.30;;
29500;SDS011;16450;50.288;10.966;2024-01-06T03:56:57;13.13;;;6.70;;
29500;SDS011;16450;50.288;10.966;2024-01-06T03:59:59;8.83;;;5.87;;
29500;SDS011;16450;50.288;10.966;2024-01-06T04:03:01;10.53;;;6.50;;
29500;SDS011;16450;50.288;10.966;2024-01-06T04:06:03;10.67;;;6.77;;
29500;SDS011;16450;50.288;10.966;2024-01-06T04:09:05;10.43;;;6.70;;
29500;SDS011;16450;50.288;10.966;2024-01-06T04:12:07;13.07;;;6.77;;
29500;SDS011;16450;50.288;10.966;2024-01-06T04:15:09;11.20;;;6.33;;
29500;SDS011;16450;50.288;10.966;2024-01-06T04:18:11;10.20;;;6.50;;
29500;SDS011;16450;50.288;10.966;2024-01-06T04:21:13;11.53;;;6.43;;
29500;SDS011;16450;50.288;10.966;2024-01-06T04:24:15;11.60;;;6.40;;
29500;SDS011;16450;50.288;10.966;2024-01-06T04:27:17;12.80;;;6.70;;
29500;SDS011;16450;50.288;10.966;2024-01-06T04:30:19;10.83;;;6.40;;
29500;SDS011;16450;50.288;10.966;2024-01-06T04:33:22;10.27;;;6.47;;
29500;SDS011;16450;50.288;10.966;2024-01-06T04:36:24;9.90;;;6.53;;
29500;SDS011;16450;50.288;10.966;2024-01-06T04:39:26;10.33;;;6.50;;
29500;SDS011;16450;50.288;10.966;2024-01-06T04:42:28;11.47;;;6.73;;
29500;SDS011;16450;50.288;10.966;2024-01-06T04:45:30;12.50;;;6.57;;
29500;SDS011;16450;50.288;10.966;2024-01-06T04:48:32;9.77;;;6.17;;
29500;SDS011;16450;50.288;10.966;2024-01-06T04:51:34;10.90;;;6.77;;
29500;SDS011;16450;50.288;10.966;2024-01-06T04:54:36;11.60;;;6.77;;
29500;SDS011;16450;50.288;10.966;2024-01-06T04:57:37;10.03;;;6.50;;
29500;SDS011;16450;50.288;10.966;2024-01-06T05:00:39;11.43;;;6.60;;
29500;SDS011;16450;50.288;10.966;2024-01-06T05:03:41;10.73;;;6.53;;
29500;SDS011;16450;50.288;10.966;2024-01-06T05:06:43;9.43;;;5.93;;
29500;SDS011;16450;50.288;10.966;2024-01-06T05:09:45;10.40;;;6.13;;
29500;SDS011;16450;50.288;10.966;2024-01-06T05:12:47;11.80;;;6.63;;
29500;SDS011;16450;50.288;10.966;2024-01-06T05:15:49;13.10;;;6.97;;
29500;SDS011;16450;50.288;10.966;2024-01-06T05:18:51;10.70;;;6.57;;
29500;SDS011;16450;50.288;10.966;2024-01-06T05:21:53;12.93;;;7.20;;
29500;SDS011;16450;50.288;10.966;2024-01-06T05:24:55;12.30;;;7.03;;
29500;SDS011;16450;50.288;10.966;2024-01-06T05:27:57;12.40;;;7.03;;
29500;SDS011;16450;50.288;10.966;2024-01-06T05:30:59;15.13;;;6.93;;
29500;SDS011;16450;50.288;10.966;2024-01-06T05:34:01;12.87;;;7.27;;
29500;SDS011;16450;50.288;10.966;2024-01-06T05:37:03;12.17;;;7.03;;
29500;SDS011;16450;50.288;10.966;2024-01-06T05:40:06;13.17;;;7.57;;
29500;SDS011;16450;50.288;10.966;2024-01-06T05:43:08;15.00;;;8.00;;
29500;SDS011;16450;50.288;10.966;2024-01-06T05:46:10;15.47;;;8.70;;
29500;SDS011;16450;50.288;10.966;2024-01-06T05:49:12;31.77;;;20.63;;
29500;SDS011;16450;50.288;10.966;2024-01-06T05:52:14;21.13;;;14.03;;
29500;SDS011;16450;50.288;10.966;2024-01-06T05:55:17;20.50;;;11.77;;
29500;SDS011;16450;50.288;10.966;2024-01-06T05:58:19;19.27;;;12.70;;
29500;SDS011;16450;50.288;10.966;2024-01-06T06:01:20;17.40;;;9.87;;
29500;SDS011;16450;50.288;10.966;2024-01-06T06:04:24;20.87;;;8.73;;
29500;SDS011;16450;50.288;10.966;2024-01-06T06:07:27;14.73;;;8.30;;
29500;SDS011;16450;50.288;10.966;2024-01-06T06:10:28;20.77;;;7.87;;
29500;SDS011;16450;50.288;10.966;2024-01-06T06:13:42;16.13;;;7.93;;
29500;SDS011;16450;50.288;10.966;2024-01-06T06:16:44;15.43;;;8.00;;
29500;SDS011;16450;50.288;10.966;2024-01-06T06:19:46;20.10;;;7.47;;
29500;SDS011;16450;50.288;10.966;2024-01-06T06:22:48;21.43;;;8.13;;
29500;SDS011;16450;50.288;10.966;2024-01-06T06:25:50;19.00;;;8.67;;
29500;SDS011;16450;50.288;10.966;2024-01-06T06:28:52;23.30;;;8.50;;
29500;SDS011;16450;50.288;10.966;2024-01-06T06:31:54;36.40;;;8.93;;
29500;SDS011;16450;50.288;10.966;2024-01-06T06:34:56;50.97;;;9.53;;
29500;SDS011;16450;50.288;10.966;2024-01-06T06:37:58;19.47;;;8.60;;
29500;SDS011;16450;50.288;10.966;2024-01-06T06:41:02;40.20;;;10.30;;
29500;SDS011;16450;50.288;10.966;2024-01-06T06:44:07;38.57;;;11.97;;
29500;SDS011;16450;50.288;10.966;2024-01-06T06:47:09;25.60;;;11.70;;
29500;SDS011;16450;50.288;10.966;2024-01-06T06:50:11;30.97;;;10.97;;
29500;SDS011;16450;50.288;10.966;2024-01-06T06:53:18;37.33;;;11.00;;
29500;SDS011;16450;50.288;10.966;2024-01-06T06:56:24;62.33;;;11.33;;
29500;SDS011;16450;50.288;10.966;2024-01-06T06:59:29;95.90;;;18.63;;
29500;SDS011;16450;50.288;10.966;2024-01-06T07:02:33;45.83;;;17.80;;
29500;SDS011;16450;50.288;10.966;2024-01-06T07:05:40;76.87;;;24.77;;
29500;SDS011;16450;50.288;10.966;2024-01-06T07:08:49;64.00;;;15.97;;
29500;SDS011;16450;50.288;10.966;2024-01-06T07:11:55;59.47;;;15.00;;
29500;SDS011;16450;50.288;10.966;2024-01-06T07:15:05;61.80;;;21.80;;
29500;SDS011;16450;50.288;10.966;2024-01-06T07:18:11;72.50;;;30.70;;
29500;SDS011;16450;50.288;10.966;2024-01-06T07:21:20;59.67;;;22.03;;
29500;SDS011;16450;50.288;10.966;2024-01-06T07:24:22;92.80;;;32.03;;
29500;SDS011;16450;50.288;10.966;2024-01-06T07:27:24;83.00;;;25.83;;
29500;SDS011;16450;50.288;10.966;2024-01-06T07:30:26;51.13;;;15.37;;
29500;SDS011;16450;50.288;10.966;2024-01-06T07:33:28;72.47;;;28.63;;
29500;SDS011;16450;50.288;10.966;2024-01-06T07:36:30;52.93;;;18.37;;
29500;SDS011;16450;50.288;10.966;2024-01-06T07:39:33;75.03;;;17.47;;
29500;SDS011;16450;50.288;10.966;2024-01-06T07:42:35;65.23;;;30.20;;
29500;SDS011;16450;50.288;10.966;2024-01-06T07:45:37;47.17;;;17.80;;
29500;SDS011;16450;50.288;10.966;2024-01-06T07:48:40;80.43;;;17.47;;
29500;SDS011;16450;50.288;10.966;2024-01-06T07:51:42;52.17;;;15.90;;
29500;SDS011;16450;50.288;10.966;2024-01-06T07:54:44;29.03;;;13.97;;
29500;SDS011;16450;50.288;10.966;2024-01-06T07:57:46;45.27;;;17.93;;
29500;SDS011;16450;50.288;10.966;2024-01-06T08:00:48;61.37;;;17.97;;
29500;SDS011;16450;50.288;10.966;2024-01-06T08:03:50;43.40;;;17.97;;
29500;SDS011;16450;50.288;10.966;2024-01-06T08:06:52;56.20;;;24.40;;
29500;SDS011;16450;50.288;10.966;2024-01-06T08:09:56;55.43;;;29.10;;
29500;SDS011;16450;50.288;10.966;2024-01-06T08:12:58;52.07;;;21.90;;
29500;SDS011;16450;50.288;10.966;2024-01-06T08:16:00;28.93;;;14.00;;
29500;SDS011;16450;50.288;10.966;2024-01-06T08:19:02;31.77;;;13.83;;
29500;SDS011;16450;50.288;10.966;2024-01-06T08:22:04;29.63;;;13.77;;
29500;SDS011;16450;50.288;10.966;2024-01-06T08:25:07;31.60;;;17.03;;
29500;SDS011;16450;50.288;10.966;2024-01-06T08:28:09;31.97;;;18.67;;
29500;SDS011;16450;50.288;10.966;2024-01-06T08:31:11;34.00;;;18.03;;
29500;SDS011;16450;50.288;10.966;2024-01-06T08:34:13;37.53;;;20.70;;
29500;SDS011;16450;50.288;10.966;2024-01-06T08:37:15;29.07;;;15.50;;
29500;SDS011;16450;50.288;10.966;2024-01-06T08:40:17;30.33;;;16.77;;
29500;SDS011;16450;50.288;10.966;2024-01-06T08:43:19;24.20;;;13.50;;
29500;SDS011;16450;50.288;10.966;2024-01-06T08:46:21;23.90;;;12.37;;
29500;SDS011;16450;50.288;10.966;2024-01-06T08:49:23;24.37;;;13.17;;
29500;SDS011;16450;50.288;10.966;2024-01-06T08:52:25;25.50;;;13.63;;
29500;SDS011;16450;50.288;10.966;2024-01-06T08:55:27;21.37;;;11.83;;
29500;SDS011;16450;50.288;10.966;2024-01-06T08:58:29;24.83;;;13.33;;
29500;SDS011;16450;50.288;10.966;2024-01-06T09:01:31;26.00;;;14.67;;
29500;SDS011;16450;50.288;10.966;2024-01-06T09:04:33;24.43;;;13.73;;
29500;SDS011;16450;50.288;10.966;2024-01-06T09:07:35;24.87;;;12.83;;
29500;SDS011;16450;50.288;10.966;2024-01-06T09:10:36;25.80;;;13.53;;
29500;SDS011;16450;50.288;10.966;2024-01-06T09:13:39;24.17;;;12.93;;
29500;SDS011;16450;50.288;10.966;2024-01-06T09:16:40;24.23;;;13.47;;
29500;SDS011;16450;50.288;10.966;2024-01-06T09:19:42;23.47;;;12.47;;
29500;SDS011;16450;50.288;10.966;2024-01-06T09:22:44;23.00;;;12.63;;
29500;SDS011;16450;50.288;10.966;2024-01-06T09:25:46;24.83;;;13.37;;
29500;SDS011;16450;50.288;10.966;2024-01-06T09:28:53;23.97;;;13.97;;
29500;SDS011;16450;50.288;10.966;2024-01-06T09:31:55;24.00;;;13.17;;
29500;SDS011;16450;50.288;10.966;2024-01-06T09:34:56;21.03;;;12.87;;
29500;SDS011;16450;50.288;10.966;2024-01-06T09:37:58;24.63;;;13.80;;
29500;SDS011;16450;50.288;10.966;2024-01-06T09:41:00;21.90;;;12.07;;
29500;SDS011;16450;50.288;10.966;2024-01-06T09:44:02;23.43;;;12.57;;
29500;SDS011;16450;50.288;10.966;2024-01-06T09:47:04;21.60;;;11.97;;
29500;SDS011;16450;50.288;10.966;2024-01-06T09:50:08;18.67;;;11.67;;
29500;SDS011;16450;50.288;10.966;2024-01-06T09:53:11;20.77;;;10.93;;
29500;SDS011;16450;50.288;10.966;2024-01-06T09:56:17;23.37;;;11.80;;
29500;SDS011;16450;50.288;10.966;2024-01-06T09:59:19;22.90;;;12.57;;
29500;SDS011;16450;50.288;10.966;2024-01-06T10:02:21;20.93;;;11.83;;
29500;SDS011;16450;50.288;10.966;2024-01-06T10:05:24;19.13;;;10.47;;
29500;SDS011;16450;50.288;10.966;2024-01-06T10:08:27;20.00;;;11.30;;
29500;SDS011;16450;50.288;10.966;2024-01-06T10:11:28;24.83;;;15.57;;
29500;SDS011;16450;50.288;10.966;2024-01-06T10:14:30;21.53;;;14.47;;
29500;SDS011;16450;50.288;10.966;2024-01-06T10:17:33;24.47;;;14.60;;
29500;SDS011;16450;50.288;10.966;2024-01-06T10:20:37;25.03;;;14.97;;
29500;SDS011;16450;50.288;10.966;2024-01-06T10:23:39;22.33;;;14.37;;
29500;SDS011;16450;50.288;10.966;2024-01-06T10:26:47;21.90;;;14.40;;
29500;SDS011;16450;50.288;10.966;2024-01-06T10:29:49;26.70;;;15.17;;
29500;SDS011;16450;50.288;10.966;2024-01-06T10:32:51;24.30;;;13.93;;
29500;SDS011;16450;50.288;10.966;2024-01-06T10:35:53;26.83;;;15.30;;
29500;SDS011;16450;50.288;10.966;2024-01-06T10:38:57;21.63;;;14.23;;
29500;SDS011;16450;50.288;10.966;2024-01-06T10:41:58;25.30;;;15.63;;
29500;SDS011;16450;50.288;10.966;2024-01-06T10:45:02;27.93;;;15.33;;
29500;SDS011;16450;50.288;10.966;2024-01-06T10:48:05;24.90;;;14.93;;
29500;SDS011;16450;50.288;10.966;2024-01-06T10:51:09;29.37;;;17.17;;
29500;SDS011;16450;50.288;10.966;2024-01-06T10:54:12;25.23;;;15.60;;
29500;SDS011;16450;50.288;10.966;2024-01-06T10:57:16;23.60;;;15.37;;
29500;SDS011;16450;50.288;10.966;2024-01-06T11:00:19;30.77;;;18.30;;
29500;SDS011;16450;50.288;10.966;2024-01-06T11:03:22;26.67;;;16.20;;
29500;SDS011;16450;50.288;10.966;2024-01-06T11:06:25;24.60;;;15.47;;
29500;SDS011;16450;50.288;10.966;2024-01-06T11:09:29;24.03;;;15.40;;
29500;SDS011;16450;50.288;10.966;2024-01-06T11:12:36;22.33;;;14.23;;
29500;SDS011;16450;50.288;10.966;2024-01-06T11:18:44;22.40;;;13.33;;
29500;SDS011;16450;50.288;10.966;2024-01-06T11:21:47;17.37;;;11.50;;
29500;SDS011;16450;50.288;10.966;2024-01-06T11:24:50;20.00;;;10.93;;
29500;SDS011;16450;50.288;10.966;2024-01-06T11:27:54;16.33;;;9.37;;
29500;SDS011;16450;50.288;10.966;2024-01-06T11:31:05;20.60;;;11.23;;
29500;SDS011;16450;50.288;10.966;2024-01-06T11:34:16;19.83;;;11.57;;
29500;SDS011;16450;50.288;10.966;2024-01-06T11:37:34;16.10;;;9.30;;
29500;SDS011;16450;50.288;10.966;2024-01-06T11:40:38;18.10;;;9.03;;
29500;SDS011;16450;50.288;10.966;2024-01-06T11:43:41;16.90;;;9.30;;
29500;SDS011;16450;50.288;10.966;2024-01-06T11:46:44;14.30;;;9.33;;
29500;SDS011;16450;50.288;10.966;2024-01-06T11:49:47;15.10;;;8.67;;
29500;SDS011;16450;50.288;10.966;2024-01-06T11:52:55;17.70;;;8.37;;
29500;SDS011;16450;50.288;10.966;2024-01-06T11:55:57;15.30;;;8.47;;
29500;SDS011;16450;50.288;10.966;2024-01-06T11:59:01;17.10;;;10.23;;
29500;SDS011;16450;50.288;10.966;2024-01-06T12:02:03;14.10;;;9.13;;
29500;SDS011;16450;50.288;10.966;2024-01-06T12:05:12;16.30;;;8.87;;
29500;SDS011;16450;50.288;10.966;2024-01-06T12:08:16;13.07;;;8.33;;
29500;SDS011;16450;50.288;10.966;2024-01-06T12:11:20;16.37;;;8.10;;
29500;SDS011;16450;50.288;10.966;2024-01-06T12:14:22;20.70;;;8.33;;
29500;SDS011;16450;50.288;10.966;2024-01-06T12:17:27;16.43;;;8.73;;
29500;SDS011;16450;50.288;10.966;2024-01-06T12:20:31;15.43;;;9.20;;
29500;SDS011;16450;50.288;10.966;2024-01-06T12:23:33;18.00;;;9.03;;
29500;SDS011;16450;50.288;10.966;2024-01-06T12:26:35;16.40;;;10.13;;
29500;SDS011;16450;50.288;10.966;2024-01-06T12:29:40;24.43;;;13.93;;
29500;SDS011;16450;50.288;10.966;2024-01-06T12:32:43;17.83;;;9.67;;
29500;SDS011;16450;50.288;10.966;2024-01-06T12:35:46;15.30;;;9.30;;
29500;SDS011;16450;50.288;10.966;2024-01-06T12:38:50;18.03;;;10.90;;
29500;SDS011;16450;50.288;10.966;2024-01-06T12:41:52;16.43;;;10.73;;
29500;SDS011;16450;50.288;10.966;2024-01-06T12:44:56;18.37;;;10.10;;
29500;SDS011;16450;50.288;10.966;2024-01-06T12:47:58;16.33;;;9.97;;
29500;SDS011;16450;50.288;10.966;2024-01-06T12:51:00;16.07;;;9.30;;
29500;SDS011;16450;50.288;10.966;2024-01-06T12:54:02;15.90;;;9.27;;
29500;SDS011;16450;50.288;10.966;2024-01-06T12:57:05;18.03;;;9.40;;
29500;SDS011;16450;50.288;10.966;2024-01-06T13:00:07;17.97;;;10.00;;
29500;SDS011;16450;50.288;10.966;2024-01-06T13:03:13;17.50;;;9.73;;
29500;SDS011;16450;50.288;10.966;2024-01-06T13:06:16;16.70;;;8.70;;
29500;SDS011;16450;50.288;10.966;2024-01-06T13:09:20;13.97;;;9.10;;
29500;SDS011;16450;50.288;10.966;2024-01-06T13:12:25;16.13;;;9.50;;
29500;SDS011;16450;50.288;10.966;2024-01-06T13:15:28;16.33;;;9.17;;
29500;SDS011;16450;50.288;10.966;2024-01-06T13:18:30;16.93;;;10.10;;
29500;SDS011;16450;50.288;10.966;2024-01-06T13:21:32;17.00;;;8.87;;
29500;SDS011;16450;50.288;10.966;2024-01-06T13:24:36;18.33;;;9.63;;
29500;SDS011;16450;50.288;10.966;2024-01-06T13:27:39;17.10;;;9.63;;
29500;SDS011;16450;50.288;10.966;2024-01-06T13:30:41;14.50;;;8.10;;
29500;SDS011;16450;50.288;10.966;2024-01-06T13:33:43;14.83;;;7.93;;
29500;SDS011;16450;50.288;10.966;2024-01-06T13:36:45;18.87;;;8.77;;
29500;SDS011;16450;50.288;10.966;2024-01-06T13:39:48;14.43;;;8.60;;
29500;SDS011;16450;50.288;10.966;2024-01-06T13:42:50;16.80;;;9.07;;
29500;SDS011;16450;50.288;10.966;2024-01-06T13:45:53;14.53;;;8.60;;
29500;SDS011;16450;50.288;10.966;2024-01-06T13:48:55;15.90;;;8.00;;
29500;SDS011;16450;50.288;10.966;2024-01-06T13:51:57;15.80;;;8.90;;
29500;SDS011;16450;50.288;10.966;2024-01-06T13:54:59;16.37;;;8.37;;
29500;SDS011;16450;50.288;10.966;2024-01-06T13:58:02;14.93;;;7.93;;
29500;SDS011;16450;50.288;10.966;2024-01-06T14:01:04;16.07;;;8.10;;
29500;SDS011;16450;50.288;10.966;2024-01-06T14:04:06;15.67;;;8.43;;
29500;SDS011;16450;50.288;10.966;2024-01-06T14:07:09;17.67;;;8.40;;
29500;SDS011;16450;50.288;10.966;2024-01-06T14:10:11;17.43;;;8.60;;
29500;SDS011;16450;50.288;10.966;2024-01-06T14:13:17;17.47;;;9.13;;
29500;SDS011;16450;50.288;10.966;2024-01-06T14:16:19;15.63;;;9.03;;
29500;SDS011;16450;50.288;10.966;2024-01-06T14:19:22;17.43;;;11.17;;
29500;SDS011;16450;50.288;10.966;2024-01-06T14:22:25;17.17;;;9.60;;
29500;SDS011;16450;50.288;10.966;2024-01-06T14:25:27;17.70;;;10.03;;
29500;SDS011;16450;50.288;10.966;2024-01-06T14:28:29;17.30;;;8.80;;
29500;SDS011;16450;50.288;10.966;2024-01-06T14:31:31;18.23;;;8.60;;
29500;SDS011;16450;50.288;10.966;2024-01-06T14:34:34;16.33;;;8.60;;
29500;SDS011;16450;50.288;10.966;2024-01-06T14:37:36;13.60;;;7.90;;
29500;SDS011;16450;50.288;10.966;2024-01-06T14:40:38;13.50;;;8.40;;
29500;SDS011;16450;50.288;10.966;2024-01-06T14:43:40;13.67;;;8.17;;
29500;SDS011;16450;50.288;10.966;2024-01-06T14:46:42;13.00;;;7.53;;
29500;SDS011;16450;50.288;10.966;2024-01-06T14:49:44;15.37;;;7.80;;
29500;SDS011;16450;50.288;10.966;2024-01-06T14:52:46;15.00;;;8.07;;
29500;SDS011;16450;50.288;10.966;2024-01-06T14:55:47;14.03;;;8.33;;
29500;SDS011;16450;50.288;10.966;2024-01-06T14:58:49;14.80;;;8.10;;
29500;SDS011;16450;50.288;10.966;2024-01-06T15:01:51;13.87;;;8.23;;
29500;SDS011;16450;50.288;10.966;2024-01-06T15:04:53;15.27;;;7.27;;
29500;SDS011;16450;50.288;10.966;2024-01-06T15:07:56;17.33;;;9.07;;
29500;SDS011;16450;50.288;10.966;2024-01-06T15:10:57;14.47;;;8.00;;
29500;SDS011;16450;50.288;10.966;2024-01-06T15:13:59;15.70;;;8.27;;
29500;SDS011;16450;50.288;10.966;2024-01-06T15:17:05;14.73;;;8.20;;
29500;SDS011;16450;50.288;10.966;2024-01-06T15:20:08;14.93;;;8.40;;
29500;SDS011;16450;50.288;10.966;2024-01-06T15:23:11;17.83;;;8.67;;
29500;SDS011;16450;50.288;10.966;2024-01-06T15:26:20;14.60;;;8.80;;
29500;SDS011;16450;50.288;10.966;2024-01-06T15:29:25;15.17;;;8.50;;
29500;SDS011;16450;50.288;10.966;2024-01-06T15:32:27;17.33;;;10.80;;
29500;SDS011;16450;50.288;10.966;2024-01-06T15:35:30;15.57;;;10.03;;
29500;SDS011;16450;50.288;10.966;2024-01-06T15:38:32;20.07;;;9.93;;
29500;SDS011;16450;50.288;10.966;2024-01-06T15:41:33;19.37;;;11.07;;
29500;SDS011;16450;50.288;10.966;2024-01-06T15:44:35;18.43;;;10.30;;
29500;SDS011;16450;50.288;10.966;2024-01-06T15:47:37;18.67;;;10.63;;
29500;SDS011;16450;50.288;10.966;2024-01-06T15:50:39;18.97;;;10.67;;
29500;SDS011;16450;50.288;10.966;2024-01-06T15:53:41;19.33;;;9.93;;
29500;SDS011;16450;50.288;10.966;2024-01-06T15:56:43;18.50;;;9.93;;
29500;SDS011;16450;50.288;10.966;2024-01-06T15:59:46;21.83;;;12.10;;
29500;SDS011;16450;50.288;10.966;2024-01-06T16:02:48;19.23;;;9.80;;
29500;SDS011;16450;50.288;10.966;2024-01-06T16:05:50;23.60;;;12.50;;
29500;SDS011;16450;50.288;10.966;2024-01-06T16:08:52;23.17;;;13.30;;
29500;SDS011;16450;50.288;10.966;2024-01-06T16:11:55;20.67;;;11.40;;
29500;SDS011;16450;50.288;10.966;2024-01-06T16:14:58;30.63;;;15.20;;
29500;SDS011;16450;50.288;10.966;2024-01-06T16:18:00;43.17;;;21.50;;
29500;SDS011;16450;50.288;10.966;2024-01-06T16:21:02;41.73;;;20.10;;
29500;SDS011;16450;50.288;10.966;2024-01-06T16:24:05;29.90;;;15.87;;
29500;SDS011;16450;50.288;10.966;2024-01-06T16:27:07;19.97;;;12.00;;
29500;SDS011;16450;50.288;10.966;2024-01-06T16:30:09;20.30;;;12.13;;
29500;SDS011;16450;50.288;10.966;2024-01-06T16:33:11;18.77;;;11.10;;
29500;SDS011;16450;50.288;10.966;2024-01-06T16:36:14;18.57;;;11.13;;
29500;SDS011;16450;50.288;10.966;2024-01-06T16:39:17;19.27;;;10.93;;
29500;SDS011;16450;50.288;10.966;2024-01-06T16:42:19;21.83;;;12.03;;
29500;SDS011;16450;50.288;10.966;2024-01-06T16:45:22;19.57;;;11.53;;
29500;SDS011;16450;50.288;10.966;2024-01-06T16:48:27;20.57;;;11.50;;
29500;SDS011;16450;50.288;10.966;2024-01-06T16:51:30;21.17;;;11.40;;
29500;SDS011;16450;50.288;10.966;2024-01-06T16:54:38;18.30;;;9.40;;
29500;SDS011;16450;50.288;10.966;2024-01-06T16:57:45;18.17;;;9.87;;
29500;SDS011;16450;50.288;10.966;2024-01-06T17:00:47;17.90;;;9.60;;
29500;SDS011;16450;50.288;10.966;2024-01-06T17:03:49;13.40;;;8.83;;
29500;SDS011;16450;50.288;10.966;2024-01-06T17:06:52;15.43;;;9.20;;
29500;SDS011;16450;50.288;10.966;2024-01-06T17:09:56;15.97;;;9.20;;
29500;SDS011;16450;50.288;10.966;2024-01-06T17:13:01;17.33;;;10.43;;
29500;SDS011;16450;50.288;10.966;2024-01-06T17:16:04;19.73;;;11.43;;
29500;SDS011;16450;50.288;10.966;2024-01-06T17:19:07;20.83;;;11.20;;
29500;SDS011;16450;50.288;10.966;2024-01-06T17:22:09;15.00;;;9.13;;
29500;SDS011;16450;50.288;10.966;2024-01-06T17:25:11;20.67;;;11.17;;
29500;SDS011;16450;50.288;10.966;2024-01-06T17:28:16;53.30;;;27.23;;
29500;SDS011;16450;50.288;10.966;2024-01-06T17:31:18;40.33;;;22.90;;
29500;SDS011;16450;50.288;10.966;2024-01-06T17:34:20;45.00;;;25.83;;
29500;SDS011;16450;50.288;10.966;2024-01-06T17:37:22;64.57;;;36.00;;
29500;SDS011;16450;50.288;10.966;2024-01-06T17:40:24;56.07;;;28.67;;
29500;SDS011;16450;50.288;10.966;2024-01-06T17:43:26;40.27;;;23.57;;